createdAt,value
2022-12-28T00:02:25.597Z,2.40
2022-12-28T00:04:53.746Z,2.22
2022-12-28T00:07:21.532Z,1.83
2022-12-28T00:09:49.552Z,2.03
2022-12-28T00:12:17.984Z,2.28
2022-12-28T00:14:46.359Z,2.13
2022-12-28T00:17:14.430Z,2.00
2022-12-28T00:19:42.286Z,2.63
2022-12-28T00:22:10.441Z,2.50
2022-12-28T00:24:38.403Z,2.85
2022-12-28T00:27:06.629Z,3.88
2022-12-28T00:29:34.920Z,3.58
2022-12-28T00:32:04.150Z,3.83
2022-12-28T00:34:32.240Z,3.28
2022-12-28T00:37:10.368Z,2.70
2022-12-28T00:39:42.625Z,2.90
2022-12-28T00:42:10.663Z,3.72
2022-12-28T00:44:38.803Z,4.05
2022-12-28T00:47:07.100Z,4.85
2022-12-28T00:49:39.757Z,3.72
2022-12-28T00:52:08.071Z,5.20
2022-12-28T00:54:43.367Z,3.75
2022-12-28T00:57:13.041Z,3.45
2022-12-28T00:59:40.941Z,2.92
2022-12-28T01:02:08.854Z,4.80
2022-12-28T01:04:45.445Z,4.03
2022-12-28T01:07:15.575Z,4.20
2022-12-28T01:09:44.062Z,4.72
2022-12-28T01:12:16.433Z,4.32
2022-12-28T01:14:45.076Z,4.78
2022-12-28T01:17:15.076Z,3.03
2022-12-28T01:19:50.264Z,7.85
2022-12-28T01:22:22.108Z,6.57
2022-12-28T01:24:49.997Z,3.20
2022-12-28T01:27:17.830Z,5.78
2022-12-28T01:29:46.095Z,3.33
2022-12-28T01:32:15.976Z,4.75
2022-12-28T01:34:43.836Z,4.55
2022-12-28T01:37:14.031Z,7.63
2022-12-28T01:39:43.642Z,5.40
2022-12-28T01:42:17.047Z,4.15
2022-12-28T01:44:48.269Z,8.48
2022-12-28T01:47:23.941Z,6.82
2022-12-28T01:50:01.656Z,7.65
2022-12-28T01:52:59.429Z,4.65
2022-12-28T01:55:29.582Z,7.72
2022-12-28T01:57:59.465Z,3.15
2022-12-28T02:00:28.109Z,3.75
2022-12-28T02:03:04.788Z,7.00
2022-12-28T02:05:38.652Z,5.32
2022-12-28T02:08:24.476Z,6.85
2022-12-28T02:10:54.153Z,3.35
2022-12-28T02:13:22.428Z,2.65
2022-12-28T02:15:50.983Z,5.85
2022-12-28T02:18:20.083Z,4.55
2022-12-28T02:20:58.726Z,4.82
2022-12-28T02:23:35.666Z,8.10
2022-12-28T02:26:41.556Z,6.63
2022-12-28T02:29:14.114Z,5.95
2022-12-28T02:31:50.678Z,5.63
2022-12-28T02:34:49.227Z,3.97
2022-12-28T02:37:28.346Z,2.05
2022-12-28T02:39:59.041Z,4.80
2022-12-28T02:42:27.570Z,4.38
2022-12-28T02:45:14.546Z,6.82
2022-12-28T02:48:05.616Z,2.92
2022-12-28T02:50:44.401Z,5.03
2022-12-28T02:53:23.086Z,5.03
2022-12-28T02:56:10.415Z,5.28
2022-12-28T02:59:11.492Z,4.95
2022-12-28T03:02:09.152Z,7.93
2022-12-28T03:05:12.417Z,4.30
2022-12-28T03:08:17.773Z,3.05
2022-12-28T03:11:08.233Z,5.22
2022-12-28T03:13:53.853Z,6.28
2022-12-28T03:16:31.545Z,5.97
2022-12-28T03:19:44.272Z,5.10
2022-12-28T03:22:30.897Z,4.10
2022-12-28T03:25:20.051Z,4.03
2022-12-28T03:28:07.385Z,8.88
2022-12-28T03:30:55.845Z,6.05
2022-12-28T03:33:26.147Z,5.22
2022-12-28T03:36:02.818Z,4.55
2022-12-28T03:38:35.835Z,6.38
2022-12-28T03:41:16.286Z,1.80
2022-12-28T03:43:50.249Z,8.35
2022-12-28T03:46:40.023Z,5.18
2022-12-28T03:49:07.844Z,7.25
2022-12-28T03:51:35.744Z,2.05
2022-12-28T03:54:18.991Z,7.55
2022-12-28T03:56:51.063Z,4.55
2022-12-28T03:59:23.312Z,4.95
2022-12-28T04:01:54.375Z,6.10
2022-12-28T04:04:24.244Z,4.60
2022-12-28T04:06:53.204Z,5.15
2022-12-28T04:09:22.643Z,9.70
2022-12-28T04:11:50.876Z,5.45
2022-12-28T04:14:26.420Z,8.90
2022-12-28T08:12:04.668Z,6.63
2022-12-28T08:14:38.370Z,7.28
2022-12-28T08:17:06.395Z,8.25
2022-12-28T08:19:34.469Z,13.48
2022-12-28T08:22:08.154Z,11.93
2022-12-28T08:27:08.439Z,6.13
2022-12-28T08:29:56.857Z,7.03
2022-12-28T08:32:26.582Z,11.27
2022-12-28T08:34:55.837Z,8.15
2022-12-28T08:37:28.537Z,5.70
2022-12-28T08:40:04.348Z,9.10
2022-12-28T08:45:00.979Z,6.13
2022-12-28T08:47:30.451Z,9.77
2022-12-28T08:49:58.388Z,13.50
2022-12-28T08:52:27.868Z,12.05
2022-12-28T08:54:57.088Z,8.85
2022-12-28T08:57:24.986Z,7.72
2022-12-28T08:59:53.799Z,7.82
2022-12-28T09:02:22.648Z,7.82
2022-12-28T09:04:52.056Z,11.45
2022-12-28T09:07:20.264Z,12.98
2022-12-28T09:10:03.090Z,10.52
2022-12-28T09:12:37.544Z,10.70
2022-12-28T09:15:06.444Z,12.13
2022-12-28T09:17:35.343Z,9.73
2022-12-28T09:20:03.418Z,8.90
2022-12-28T09:22:31.992Z,14.75
2022-12-28T09:25:01.152Z,13.88
2022-12-28T09:27:30.852Z,14.10
2022-12-28T09:29:59.420Z,13.98
2022-12-28T09:32:28.483Z,11.50
2022-12-28T09:34:56.523Z,12.10
2022-12-28T09:37:24.316Z,10.35
2022-12-28T09:39:54.569Z,9.88
2022-12-28T09:42:28.366Z,12.35
2022-12-28T09:45:00.730Z,11.57
2022-12-28T09:47:52.086Z,7.50
2022-12-28T09:50:30.871Z,10.52
2022-12-28T09:53:18.504Z,10.98
2022-12-28T09:56:31.666Z,12.85
2022-12-28T09:59:00.601Z,10.63
2022-12-28T10:01:33.043Z,15.65
2022-12-28T10:04:02.738Z,12.10
2022-12-28T10:06:35.385Z,13.73
2022-12-28T10:09:11.359Z,11.70
2022-12-28T10:11:50.504Z,10.73
2022-12-28T10:14:35.744Z,11.00
2022-12-28T10:20:03.943Z,9.85
2022-12-28T10:22:49.693Z,10.68
2022-12-28T10:25:22.067Z,13.55
2022-12-28T10:27:50.334Z,12.43
2022-12-28T10:30:20.385Z,10.93
2022-12-28T10:33:13.824Z,12.88
2022-12-28T10:36:04.782Z,9.98
2022-12-28T10:38:34.035Z,13.65
2022-12-28T10:41:10.443Z,11.32
2022-12-28T10:43:40.454Z,9.95
2022-12-28T10:46:18.181Z,11.00
2022-12-28T10:48:54.312Z,15.23
2022-12-28T10:51:28.452Z,13.07
2022-12-28T10:53:57.228Z,14.05
2022-12-28T10:56:38.483Z,11.73
2022-12-28T10:59:12.656Z,11.32
2022-12-28T11:01:42.147Z,11.30
2022-12-28T11:04:20.580Z,13.82
2022-12-28T11:06:56.652Z,20.13
2022-12-28T11:09:27.425Z,13.23
2022-12-28T11:11:57.009Z,14.15
2022-12-28T11:14:37.777Z,13.98
2022-12-28T11:17:19.160Z,11.48
2022-12-28T11:19:48.490Z,14.55
2022-12-28T11:22:20.898Z,18.40
2022-12-28T11:24:49.220Z,13.10
2022-12-28T11:27:18.719Z,15.25
2022-12-28T11:29:48.271Z,16.23
2022-12-28T11:32:27.112Z,11.75
2022-12-28T11:34:55.054Z,15.20
2022-12-28T11:37:23.031Z,13.27
2022-12-28T11:39:53.772Z,11.77
2022-12-28T11:42:39.566Z,13.45
2022-12-28T11:45:17.385Z,13.55
2022-12-28T11:47:46.325Z,13.90
2022-12-28T11:50:38.328Z,12.63
2022-12-28T11:53:31.754Z,11.80
2022-12-28T11:56:10.107Z,13.98
2022-12-28T11:58:41.271Z,12.57
2022-12-28T12:01:33.793Z,11.38
2022-12-28T12:04:02.475Z,10.02
2022-12-28T12:06:45.949Z,8.23
2022-12-28T12:09:22.189Z,12.43
2022-12-28T12:11:59.048Z,11.45
2022-12-28T12:14:28.677Z,13.68
2022-12-28T12:17:05.542Z,12.55
2022-12-28T12:19:39.230Z,10.88
2022-12-28T12:22:10.058Z,9.23
2022-12-28T12:25:02.423Z,12.35
2022-12-28T12:27:33.307Z,11.68
2022-12-28T12:30:21.967Z,8.50
2022-12-28T12:32:57.021Z,12.82
2022-12-28T12:35:27.111Z,9.55
2022-12-28T12:38:13.563Z,11.80
2022-12-28T12:41:23.208Z,13.48
2022-12-28T12:43:59.729Z,7.93
2022-12-28T12:46:30.554Z,14.80
2022-12-28T12:49:13.547Z,11.63
2022-12-28T12:51:51.175Z,10.57
2022-12-28T12:54:37.799Z,15.52
2022-12-28T12:57:18.492Z,10.60
2022-12-28T12:59:55.454Z,9.10
2022-12-28T13:02:30.212Z,6.65
2022-12-28T13:05:01.485Z,18.50
2022-12-28T13:07:29.668Z,14.63
2022-12-28T13:10:04.774Z,9.60
2022-12-28T13:12:32.798Z,11.65
2022-12-28T13:15:04.793Z,7.05
2022-12-28T13:17:35.463Z,9.50
2022-12-28T13:20:23.507Z,7.72
2022-12-28T13:22:51.628Z,6.90
2022-12-28T13:25:26.443Z,8.43
2022-12-28T13:27:54.733Z,9.35
2022-12-28T13:30:24.009Z,7.82
2022-12-28T16:56:34.962Z,10.00
2022-12-28T16:59:02.895Z,5.45
2022-12-28T17:01:31.378Z,9.20
2022-12-28T17:04:03.983Z,8.40
2022-12-28T17:06:33.366Z,8.25
2022-12-28T17:09:06.683Z,9.60
2022-12-28T17:11:35.039Z,9.75
2022-12-28T17:14:05.023Z,17.40
2022-12-28T17:16:35.755Z,9.45
2022-12-28T17:19:03.841Z,10.25
2022-12-28T17:21:32.498Z,12.45
2022-12-28T17:24:00.835Z,11.35
2022-12-28T17:26:30.337Z,17.58
2022-12-28T17:29:06.184Z,14.32
2022-12-28T17:31:35.097Z,11.70
2022-12-28T17:34:03.929Z,8.77
2022-12-28T17:36:32.054Z,9.82
2022-12-28T17:39:00.224Z,19.98
2022-12-28T17:41:29.570Z,7.97
2022-12-28T17:43:59.381Z,11.85
2022-12-28T17:46:28.536Z,10.38
2022-12-28T17:48:57.335Z,9.98
2022-12-28T17:51:25.686Z,9.70
2022-12-28T17:53:54.587Z,8.85
2022-12-28T17:56:22.353Z,9.18
2022-12-28T17:58:56.595Z,12.77
2022-12-28T18:01:25.345Z,12.85
2022-12-28T18:03:53.710Z,12.25
2022-12-28T18:06:21.768Z,17.80
2022-12-28T18:08:49.745Z,22.30
2022-12-28T18:11:17.717Z,15.70
2022-12-28T18:13:46.918Z,15.23
2022-12-28T18:16:17.719Z,18.80
2022-12-28T18:18:47.753Z,17.48
2022-12-28T18:21:21.365Z,19.15
2022-12-28T18:23:51.534Z,21.38
2022-12-28T18:26:21.719Z,31.70
2022-12-28T18:28:49.812Z,22.77
2022-12-28T18:31:20.226Z,25.10
2022-12-28T18:33:48.476Z,16.90
2022-12-28T18:36:18.138Z,19.17
2022-12-28T18:38:47.111Z,18.90
2022-12-28T18:41:20.948Z,16.35
2022-12-28T18:43:49.573Z,16.65
2022-12-28T18:46:17.962Z,16.55
2022-12-28T18:48:46.337Z,18.63
2022-12-28T18:51:24.946Z,18.45
2022-12-28T18:53:53.354Z,18.10
2022-12-28T18:56:21.970Z,13.88
2022-12-28T18:58:59.803Z,12.35
2022-12-28T19:04:17.105Z,20.05
2022-12-28T19:06:47.677Z,13.70
2022-12-28T19:09:16.040Z,17.75
2022-12-28T19:11:45.072Z,16.25
2022-12-28T19:14:17.087Z,13.75
2022-12-28T19:16:45.891Z,21.75
2022-12-28T19:19:17.062Z,16.00
2022-12-28T19:21:45.293Z,14.48
2022-12-28T19:24:19.126Z,22.33
2022-12-28T19:26:47.733Z,21.30
2022-12-28T19:29:16.757Z,23.42
2022-12-28T19:31:46.609Z,19.92
2022-12-28T19:34:15.964Z,32.00
2022-12-28T19:36:44.663Z,43.35
2022-12-28T19:39:12.711Z,51.08
2022-12-28T19:41:40.623Z,78.47
2022-12-28T19:44:08.781Z,86.88
2022-12-28T19:46:36.915Z,77.28
2022-12-28T19:49:05.038Z,78.10
2022-12-28T19:51:34.200Z,79.00
2022-12-28T19:54:03.263Z,76.57
2022-12-28T19:56:31.220Z,82.20
2022-12-28T19:59:06.192Z,84.20
2022-12-28T20:01:35.423Z,86.97
2022-12-28T20:04:08.828Z,84.00
2022-12-28T20:06:40.512Z,84.85
2022-12-28T20:09:08.445Z,81.72
2022-12-28T20:11:40.793Z,84.15
2022-12-28T20:14:11.589Z,82.28
2022-12-28T20:16:39.572Z,71.53
2022-12-28T20:19:08.801Z,70.35
2022-12-28T20:21:38.721Z,69.85
2022-12-28T20:24:07.475Z,70.40
2022-12-28T20:26:38.970Z,59.00
2022-12-28T20:29:07.191Z,68.28
2022-12-28T20:31:35.614Z,47.28
2022-12-28T20:34:03.765Z,42.03
2022-12-28T20:36:34.278Z,43.83
2022-12-28T20:39:02.398Z,43.08
2022-12-28T20:41:54.739Z,36.95
2022-12-28T20:44:29.970Z,38.58
2022-12-28T20:46:58.582Z,42.53
2022-12-28T20:49:31.718Z,38.65
2022-12-28T20:52:02.502Z,50.75
2022-12-28T20:54:30.624Z,41.10
2022-12-28T20:56:58.989Z,44.83
2022-12-28T20:59:32.406Z,52.63
2022-12-28T21:02:01.368Z,45.42
2022-12-28T21:04:29.619Z,46.38
2022-12-28T21:07:00.977Z,51.53
2022-12-28T21:09:29.121Z,47.00
2022-12-28T21:11:58.999Z,45.75
2022-12-28T21:14:29.938Z,42.97
2022-12-28T21:17:02.097Z,42.83
2022-12-28T21:19:31.632Z,45.38
2022-12-28T21:21:59.564Z,52.95
2022-12-28T21:24:38.481Z,45.13
2022-12-28T21:27:06.681Z,43.55
2022-12-28T21:29:34.676Z,49.55
2022-12-28T21:32:02.675Z,46.55
2022-12-28T21:34:31.914Z,51.08
2022-12-28T21:37:20.174Z,48.03
2022-12-28T21:39:48.081Z,54.25
2022-12-28T21:42:16.405Z,41.83
2022-12-28T21:44:44.324Z,51.30
2022-12-28T21:47:14.065Z,51.95
2022-12-28T21:49:43.917Z,50.42
2022-12-28T21:52:12.067Z,50.20
2022-12-28T21:54:41.109Z,48.60
2022-12-28T21:57:10.285Z,38.83
2022-12-28T21:59:38.331Z,43.63
2022-12-28T22:02:35.309Z,28.25
2022-12-28T22:05:22.301Z,31.50
2022-12-28T22:08:14.900Z,38.22
2022-12-28T22:11:01.579Z,31.42
2022-12-28T22:13:29.560Z,35.58
2022-12-28T22:15:57.996Z,29.38
2022-12-28T22:19:00.264Z,32.63
2022-12-28T22:21:16.124Z,29.65
2022-12-28T22:23:44.118Z,32.28
2022-12-28T22:26:12.015Z,28.08
2022-12-28T22:28:39.897Z,28.10
2022-12-28T22:31:08.434Z,28.33
2022-12-28T22:33:37.257Z,29.70
2022-12-28T22:36:16.091Z,29.98
2022-12-28T22:38:48.081Z,35.53
2022-12-28T22:41:16.940Z,25.98
2022-12-28T22:43:51.943Z,24.63
2022-12-28T22:46:20.290Z,31.20
2022-12-28T22:48:48.896Z,28.83
2022-12-28T22:51:18.471Z,28.23
2022-12-28T22:53:46.478Z,33.97
2022-12-28T22:56:21.044Z,25.02
2022-12-28T22:58:49.111Z,26.25
2022-12-28T23:01:19.580Z,28.70
2022-12-28T23:03:49.340Z,25.55
2022-12-28T23:06:18.473Z,25.90
2022-12-28T23:08:46.759Z,25.52
2022-12-28T23:11:34.773Z,27.50
2022-12-28T23:14:34.142Z,20.42
2022-12-28T23:17:03.930Z,23.33
2022-12-28T23:19:51.463Z,28.70
2022-12-28T23:22:41.563Z,34.25
2022-12-28T23:25:32.473Z,27.45
2022-12-28T23:28:01.195Z,20.20
2022-12-28T23:30:30.223Z,20.33
2022-12-28T23:32:58.978Z,20.55
2022-12-28T23:35:33.229Z,26.98
2022-12-28T23:38:01.140Z,22.05
2022-12-28T23:40:29.347Z,23.55
2022-12-28T23:42:57.364Z,22.60
2022-12-28T23:45:25.210Z,25.80
2022-12-28T23:47:53.642Z,26.33
2022-12-28T23:50:22.135Z,21.08
2022-12-28T23:52:50.060Z,22.58
2022-12-28T23:55:18.039Z,19.63
2022-12-28T23:57:46.008Z,24.20
